• Join FlightAware (Why Join?)
  • Login
  • US Flag 
12:20PM EDT


 

Airport Tracker/Info


-or-


 

Live Flight TrackerFlight Track Log ✈ UPS1121 ✈ 15-Aug-2013 ✈ KBDL - KPHL

Flight Track Log - Related Links

Times and Time Zones

All times are in EDT time to prevent confusion due to time zone crossing. See the UPS1121 flight status page for this flight to view local times or setup timezone preferences in your user account.

Time Position Orientation Groundspeed Altitude Reporting Facility
EDT Latitude Longitude Course Direction KTS MPH feet Rate Location/Type
09:53PM 41.9333 -72.6969 180° South 140 161 1,300  Level Boston Center
09:54PM 41.9144 -72.7164 217° Southwest 147 169 2,100 2,640 Climbing Boston Center
09:59PM 41.5122 -72.3500 180° South  Level FlightAware Approximate
10:00PM 41.4920 -72.3580 217° Southwest 394 453 18,900  Level FlightAware
10:00PM 41.4270 -72.3410 169° South 394 453 19,100 120 Climbing FlightAware
10:01PM 41.3720 -72.3270 169° South 394 453 19,100  Level FlightAware
10:02PM 41.3160 -72.3120 169° South 394 453 19,100  Level FlightAware
10:02PM 41.2610 -72.2980 169° South 394 453 19,100 720 Level FlightAware
10:03PM 41.1720 -72.4460 231° Southwest 381 438 20,000 720 Climbing FlightAware
10:03PM 41.1220 -72.4900 214° Southwest 380 437 20,000  Level FlightAware
10:04PM 41.0750 -72.5310 213° Southwest 380 437 20,000  Level FlightAware
10:05PM 41.0190 -72.5800 213° Southwest 380 437 20,000  Level FlightAware
10:05PM 40.9690 -72.6240 214° Southwest 379 436 20,000  Level FlightAware
10:06PM 40.9219 -72.6647 213° Southwest 377 434 20,000  Level FlightAware ADS-B
10:06PM 40.8709 -72.7091 213° Southwest 377 434 20,000  Level FlightAware ADS-B
10:07PM 40.8228 -72.7509 213° Southwest 377 434 20,000  Level FlightAware ADS-B
10:07PM 40.7752 -72.7924 213° Southwest 378 435 20,000  Level FlightAware ADS-B
10:08PM 40.7252 -72.8360 213° Southwest 379 436 20,000  Level FlightAware ADS-B
10:08PM 40.6778 -72.8774 214° Southwest 379 436 20,000  Level FlightAware ADS-B
10:09PM 40.6333 -72.9160 213° Southwest 379 436 20,000  Level FlightAware ADS-B
10:10PM 40.5840 -72.9587 213° Southwest 380 437 20,000  Level FlightAware ADS-B
10:10PM 40.5350 -73.0011 213° Southwest 380 437 20,000  Level FlightAware ADS-B
10:11PM 40.4898 -73.0402 213° Southwest 381 438 20,000  Level FlightAware ADS-B
10:11PM 40.4447 -73.0789 213° Southwest 381 438 20,000  Level FlightAware ADS-B
10:12PM 40.3992 -73.1181 213° Southwest 380 437 20,000  Level FlightAware ADS-B
10:12PM 40.3533 -73.1573 213° Southwest 380 437 20,000  Level FlightAware ADS-B
10:13PM 40.3046 -73.1991 213° Southwest 380 437 20,000  Level FlightAware ADS-B
10:13PM 40.2605 -73.2367 213° Southwest 379 436 20,000  Level FlightAware ADS-B
10:14PM 40.2155 -73.2751 213° Southwest 379 436 20,000  Level FlightAware ADS-B
10:14PM 40.1703 -73.3135 213° Southwest 379 436 20,000  Level FlightAware ADS-B
10:15PM 40.1264 -73.3509 213° Southwest 379 436 20,000  Level FlightAware ADS-B
10:15PM 40.0785 -73.3915 213° Southwest 379 436 20,000  Level FlightAware ADS-B
10:16PM 40.0307 -73.4320 213° Southwest 378 435 20,000  Level FlightAware ADS-B
10:16PM 39.9860 -73.4701 213° Southwest 378 435 20,000  Level FlightAware ADS-B
10:17PM 39.9406 -73.5084 213° Southwest 378 435 20,000  Level FlightAware ADS-B
10:17PM 39.9151 -73.5312 214° Southwest 377 434 20,000  Level FlightAware ADS-B
10:17PM 39.8992 -73.5489 221° Southwest 376 433 20,000  Level FlightAware ADS-B
10:18PM 39.8864 -73.5660 226° Southwest 376 433 20,000  Level FlightAware ADS-B
10:18PM 39.8480 -73.6267 231° Southwest 376 433 20,000  Level FlightAware ADS-B
10:19PM 39.8145 -73.6805 231° Southwest 376 433 20,000  Level FlightAware ADS-B
10:19PM 39.7810 -73.7342 231° Southwest 376 433 20,000  Level FlightAware ADS-B
10:20PM 39.7471 -73.7881 231° Southwest 376 433 20,000  Level FlightAware ADS-B
10:20PM 39.7135 -73.8417 231° Southwest 377 434 20,000 -240 Level FlightAware ADS-B
10:21PM 39.6800 -73.8948 231° Southwest 374 430 19,800 -1,320 Descending FlightAware ADS-B
10:21PM 39.6470 -73.9469 231° Southwest 364 419 18,700 -2,520 Descending FlightAware ADS-B
10:22PM 39.6148 -73.9975 230° Southwest 366 421 17,300 -2,700 Descending FlightAware ADS-B
10:22PM 39.5820 -74.0490 230° Southwest 365 420 16,000 -2,580 Descending FlightAware ADS-B
10:23PM 39.5500 -74.0991 230° Southwest 360 414 14,700 -2,580 Descending FlightAware ADS-B
10:23PM 39.5416 -74.1135 233° Southwest 358 412 14,400 -2,160 Descending FlightAware ADS-B
10:23PM 39.5367 -74.1242 239° Southwest 356 410 14,200 -1,740 Descending FlightAware ADS-B
10:23PM 39.5310 -74.1409 246° West 356 410 14,000 -1,080 Descending FlightAware ADS-B
10:23PM 39.5256 -74.1711 257° West 355 409 13,800 -480 Descending FlightAware ADS-B
10:24PM 39.5251 -74.1990 269° West 354 407 13,800  Level FlightAware ADS-B
10:24PM 39.5259 -74.2565 271° West 357 411 13,800  Level FlightAware ADS-B
10:24PM 39.5273 -74.3214 272° West 356 410 13,800  Level FlightAware ADS-B
10:25PM 39.5284 -74.3854 271° West 357 411 13,800 -240 Level FlightAware ADS-B
10:25PM 39.5295 -74.4511 271° West 351 404 13,600 -1,500 Descending FlightAware ADS-B
10:26PM 39.5307 -74.5117 271° West 340 391 12,300 -2,760 Descending FlightAware ADS-B
10:26PM 39.5315 -74.5222 276° West 340 391 12,000 -2,820 Descending FlightAware ADS-B
10:26PM 39.5341 -74.5390 281° West 340 391 11,700 -2,520 Descending FlightAware ADS-B
10:26PM 39.5361 -74.5468 288° West 339 390 11,500 -2,580 Descending FlightAware ADS-B
10:26PM 39.5421 -74.5642 294° West 338 389 11,100 -2,100 Descending FlightAware ADS-B
10:27PM 39.5515 -74.5820 304° West 336 387 10,800 -1,800 Descending FlightAware ADS-B
10:27PM 39.5583 -74.5915 313° West 333 383 10,600 -1,140 Descending FlightAware ADS-B
10:27PM 39.5937 -74.6302 320° Northwest 314 361 10,100 -960 Descending FlightAware ADS-B
10:27PM 39.6111 -74.6487 321° Northwest 298 343 9,900 -600 Descending FlightAware ADS-B
10:28PM 39.6282 -74.6672 320° Northwest 285 328 9,800 -600 Descending FlightAware ADS-B
10:28PM 39.6434 -74.6837 320° Northwest 280 322 9,600 -1,200 Descending FlightAware ADS-B
10:28PM 39.6590 -74.7006 320° Northwest 279 321 9,200 -1,380 Descending FlightAware ADS-B
10:29PM 39.6741 -74.7170 320° Northwest 275 316 8,900 -840 Descending FlightAware ADS-B
10:29PM 39.6889 -74.7332 320° Northwest 275 316 8,800 -1,080 Descending FlightAware ADS-B
10:29PM 39.7238 -74.7716 320° Northwest 275 316 8,000 -1,560 Descending FlightAware ADS-B
10:30PM 39.7393 -74.7886 320° Northwest 277 319 7,500 -1,740 Descending FlightAware ADS-B
10:30PM 39.7559 -74.8066 320° Northwest 276 318 7,100 -1,620 Descending FlightAware ADS-B
10:30PM 39.7721 -74.8245 320° Northwest 276 318 6,600 -1,740 Descending FlightAware ADS-B
10:30PM 39.7871 -74.8414 319° Northwest 275 316 6,200 -1,380 Descending FlightAware ADS-B
10:31PM 39.8022 -74.8589 318° Northwest 269 310 5,900 -1,380 Descending FlightAware ADS-B
10:31PM 39.8161 -74.8754 318° Northwest 264 304 5,500 -1,620 Descending FlightAware ADS-B
10:31PM 39.8296 -74.8915 318° Northwest 262 302 5,100 -1,800 Descending FlightAware ADS-B
10:31PM 39.8432 -74.9075 318° Northwest 259 298 4,600 -2,160 Descending FlightAware ADS-B
10:32PM 39.8571 -74.9237 318° Northwest 257 296 4,000 -2,160 Descending FlightAware ADS-B
10:32PM 39.8886 -74.9600 319° Northwest 252 290 2,800 -2,160 Descending FlightAware ADS-B
10:32PM 39.8977 -74.9704 319° Northwest 250 288 2,400 -2,160 Descending FlightAware ADS-B
10:33PM 39.9002 -74.9735 316° Northwest 250 288 2,300 -1,740 Descending FlightAware ADS-B
10:33PM 39.9026 -74.9767 314° West 250 288 2,200 -2,040 Descending FlightAware ADS-B
10:33PM 39.9068 -74.9828 312° West 248 285 2,000 -1,140 Descending FlightAware ADS-B
10:33PM 39.9138 -74.9954 306° West 239 275 1,900 -840 Descending FlightAware ADS-B
10:33PM 39.9158 -75.0008 296° West 234 269 1,800 -600 Descending FlightAware ADS-B
10:33PM 39.9171 -75.0089 282° West 227 261 1,800  Level FlightAware ADS-B
10:33PM 39.9170 -75.0145 269° West 221 254 1,800  Level FlightAware ADS-B
10:34PM 39.9093 -75.0421 250° West 210 242 1,800 -240 Level FlightAware ADS-B
10:34PM 39.9058 -75.0532 248° West 197 227 1,700 -540 Descending FlightAware ADS-B
10:34PM 39.9023 -75.0677 253° West 187 215 1,600 -480 Descending FlightAware ADS-B
10:34PM 39.8991 -75.0834 255° West 169 194 1,500 -240 Descending FlightAware ADS-B
10:34PM 39.8962 -75.0979 255° West 158 182 1,500 -240 Level FlightAware ADS-B
10:35PM 39.8937 -75.1101 255° West 157 181 1,400 -300 Descending FlightAware ADS-B
10:35PM 39.8917 -75.1190 254° West 156 180 1,400  Level FlightAware ADS-B
10:35PM 39.8889 -75.1331 255° West 155 178 1,400  Level FlightAware ADS-B
10:35PM 39.8863 -75.1468 256° West 155 178 1,400 -240 Level FlightAware ADS-B
10:36PM 39.8838 -75.1599 256° West 136 157 1,300 -840 Descending FlightAware ADS-B
10:36PM 39.8815 -75.1716 256° West 133 153 1,000 -1,080 Descending FlightAware ADS-B
10:36PM 39.8796 -75.1811 255° West 128 147 800 -840 Descending FlightAware ADS-B
10:36PM 39.8781 -75.1889 256° West 121 139 700 -660 Descending FlightAware ADS-B
10:36PM 39.8758 -75.2006 256° West 114 131 500 -660 Descending FlightAware ADS-B
10:37PM 39.8733 -75.2128 255° West 111 128 300 -360 Descending FlightAware ADS-B
10:37PM 39.8700 -75.2320 257° West 109 125 200 -180 Descending FlightAware